sensor_id;sensor_type;location;lat;lon;timestamp;P1;durP1;ratioP1;P2;durP2;ratioP2
2872;SDS011;1444;49.166;7.312;2023-05-19T00:00:33;8.73;;;5.87;;
2872;SDS011;1444;49.166;7.312;2023-05-19T00:03:01;7.10;;;6.27;;
2872;SDS011;1444;49.166;7.312;2023-05-19T00:05:29;7.37;;;5.10;;
2872;SDS011;1444;49.166;7.312;2023-05-19T00:07:57;9.63;;;6.50;;
2872;SDS011;1444;49.166;7.312;2023-05-19T00:10:26;8.73;;;5.70;;
2872;SDS011;1444;49.166;7.312;2023-05-19T00:12:56;11.03;;;6.60;;
2872;SDS011;1444;49.166;7.312;2023-05-19T00:15:23;13.60;;;5.83;;
2872;SDS011;1444;49.166;7.312;2023-05-19T00:17:50;5.60;;;5.10;;
2872;SDS011;1444;49.166;7.312;2023-05-19T00:20:19;11.53;;;6.00;;
2872;SDS011;1444;49.166;7.312;2023-05-19T00:22:46;10.40;;;6.00;;
2872;SDS011;1444;49.166;7.312;2023-05-19T00:25:15;14.10;;;6.47;;
2872;SDS011;1444;49.166;7.312;2023-05-19T00:27:43;6.53;;;5.60;;
2872;SDS011;1444;49.166;7.312;2023-05-19T00:30:10;5.80;;;5.00;;
2872;SDS011;1444;49.166;7.312;2023-05-19T00:32:37;15.57;;;6.53;;
2872;SDS011;1444;49.166;7.312;2023-05-19T00:35:05;14.00;;;6.83;;
2872;SDS011;1444;49.166;7.312;2023-05-19T00:37:32;14.23;;;6.60;;
2872;SDS011;1444;49.166;7.312;2023-05-19T00:39:59;12.33;;;6.90;;
2872;SDS011;1444;49.166;7.312;2023-05-19T00:42:26;11.33;;;5.73;;
2872;SDS011;1444;49.166;7.312;2023-05-19T00:44:54;9.77;;;6.33;;
2872;SDS011;1444;49.166;7.312;2023-05-19T00:47:21;12.07;;;6.20;;
2872;SDS011;1444;49.166;7.312;2023-05-19T00:49:48;6.83;;;5.40;;
2872;SDS011;1444;49.166;7.312;2023-05-19T00:52:15;14.63;;;6.50;;
2872;SDS011;1444;49.166;7.312;2023-05-19T00:54:42;6.13;;;5.17;;
2872;SDS011;1444;49.166;7.312;2023-05-19T00:57:10;6.83;;;6.13;;
2872;SDS011;1444;49.166;7.312;2023-05-19T00:59:38;9.50;;;6.63;;
2872;SDS011;1444;49.166;7.312;2023-05-19T01:02:06;7.30;;;5.90;;
2872;SDS011;1444;49.166;7.312;2023-05-19T01:04:33;7.37;;;5.47;;
2872;SDS011;1444;49.166;7.312;2023-05-19T01:07:03;8.27;;;6.20;;
2872;SDS011;1444;49.166;7.312;2023-05-19T01:09:30;8.60;;;5.73;;
2872;SDS011;1444;49.166;7.312;2023-05-19T01:11:57;6.90;;;6.17;;
2872;SDS011;1444;49.166;7.312;2023-05-19T01:14:24;8.57;;;4.90;;
2872;SDS011;1444;49.166;7.312;2023-05-19T01:16:53;7.90;;;5.60;;
2872;SDS011;1444;49.166;7.312;2023-05-19T01:19:39;7.50;;;5.30;;
2872;SDS011;1444;49.166;7.312;2023-05-19T01:22:26;6.03;;;5.53;;
2872;SDS011;1444;49.166;7.312;2023-05-19T01:25:10;6.77;;;5.77;;
2872;SDS011;1444;49.166;7.312;2023-05-19T01:30:53;12.63;;;7.30;;
2872;SDS011;1444;49.166;7.312;2023-05-19T01:33:21;7.40;;;6.03;;
2872;SDS011;1444;49.166;7.312;2023-05-19T01:35:49;7.53;;;6.60;;
2872;SDS011;1444;49.166;7.312;2023-05-19T01:38:17;10.93;;;4.50;;
2872;SDS011;1444;49.166;7.312;2023-05-19T01:40:45;5.80;;;5.23;;
2872;SDS011;1444;49.166;7.312;2023-05-19T01:43:18;5.67;;;4.83;;
2872;SDS011;1444;49.166;7.312;2023-05-19T01:45:46;8.20;;;6.87;;
2872;SDS011;1444;49.166;7.312;2023-05-19T01:48:15;12.60;;;6.13;;
2872;SDS011;1444;49.166;7.312;2023-05-19T01:50:47;8.80;;;7.00;;
2872;SDS011;1444;49.166;7.312;2023-05-19T01:53:14;7.87;;;6.77;;
2872;SDS011;1444;49.166;7.312;2023-05-19T01:55:42;6.43;;;5.70;;
2872;SDS011;1444;49.166;7.312;2023-05-19T01:58:14;8.73;;;6.10;;
2872;SDS011;1444;49.166;7.312;2023-05-19T02:00:50;8.03;;;6.47;;
2872;SDS011;1444;49.166;7.312;2023-05-19T02:06:20;7.13;;;6.40;;
2872;SDS011;1444;49.166;7.312;2023-05-19T02:08:56;6.87;;;6.37;;
2872;SDS011;1444;49.166;7.312;2023-05-19T02:11:30;7.70;;;6.13;;
2872;SDS011;1444;49.166;7.312;2023-05-19T02:14:02;7.60;;;6.83;;
2872;SDS011;1444;49.166;7.312;2023-05-19T02:16:34;9.03;;;5.83;;
2872;SDS011;1444;49.166;7.312;2023-05-19T02:19:04;7.23;;;6.60;;
2872;SDS011;1444;49.166;7.312;2023-05-19T02:21:31;6.40;;;5.80;;
2872;SDS011;1444;49.166;7.312;2023-05-19T02:23:58;8.90;;;6.53;;
2872;SDS011;1444;49.166;7.312;2023-05-19T02:26:24;6.23;;;5.63;;
2872;SDS011;1444;49.166;7.312;2023-05-19T02:28:51;6.57;;;5.87;;
2872;SDS011;1444;49.166;7.312;2023-05-19T02:31:19;7.67;;;5.27;;
2872;SDS011;1444;49.166;7.312;2023-05-19T02:33:45;7.10;;;6.50;;
2872;SDS011;1444;49.166;7.312;2023-05-19T02:36:14;7.90;;;6.10;;
2872;SDS011;1444;49.166;7.312;2023-05-19T02:38:40;13.60;;;6.20;;
2872;SDS011;1444;49.166;7.312;2023-05-19T02:41:07;7.70;;;7.00;;
2872;SDS011;1444;49.166;7.312;2023-05-19T02:43:34;8.43;;;5.60;;
2872;SDS011;1444;49.166;7.312;2023-05-19T02:46:01;8.70;;;6.27;;
2872;SDS011;1444;49.166;7.312;2023-05-19T02:48:28;9.03;;;6.23;;
2872;SDS011;1444;49.166;7.312;2023-05-19T02:50:55;7.70;;;6.90;;
2872;SDS011;1444;49.166;7.312;2023-05-19T02:53:23;6.23;;;5.63;;
2872;SDS011;1444;49.166;7.312;2023-05-19T02:55:50;6.67;;;6.03;;
2872;SDS011;1444;49.166;7.312;2023-05-19T02:58:17;9.80;;;5.87;;
2872;SDS011;1444;49.166;7.312;2023-05-19T03:00:44;6.40;;;5.10;;
2872;SDS011;1444;49.166;7.312;2023-05-19T03:03:11;9.70;;;5.30;;
2872;SDS011;1444;49.166;7.312;2023-05-19T03:05:38;8.77;;;5.90;;
2872;SDS011;1444;49.166;7.312;2023-05-19T03:08:06;6.80;;;6.17;;
2872;SDS011;1444;49.166;7.312;2023-05-19T03:10:34;7.60;;;6.90;;
2872;SDS011;1444;49.166;7.312;2023-05-19T03:13:01;7.83;;;7.00;;
2872;SDS011;1444;49.166;7.312;2023-05-19T03:15:28;6.57;;;6.00;;
2872;SDS011;1444;49.166;7.312;2023-05-19T03:17:55;7.87;;;7.17;;
2872;SDS011;1444;49.166;7.312;2023-05-19T03:20:22;6.03;;;5.53;;
2872;SDS011;1444;49.166;7.312;2023-05-19T03:22:49;8.90;;;5.77;;
2872;SDS011;1444;49.166;7.312;2023-05-19T03:25:16;7.10;;;6.50;;
2872;SDS011;1444;49.166;7.312;2023-05-19T03:27:44;7.00;;;6.27;;
2872;SDS011;1444;49.166;7.312;2023-05-19T03:30:12;8.23;;;5.47;;
2872;SDS011;1444;49.166;7.312;2023-05-19T03:32:39;5.57;;;5.03;;
2872;SDS011;1444;49.166;7.312;2023-05-19T03:35:06;8.80;;;6.67;;
2872;SDS011;1444;49.166;7.312;2023-05-19T03:37:33;5.90;;;5.40;;
2872;SDS011;1444;49.166;7.312;2023-05-19T03:40:00;7.47;;;6.67;;
2872;SDS011;1444;49.166;7.312;2023-05-19T03:42:29;7.27;;;6.27;;
2872;SDS011;1444;49.166;7.312;2023-05-19T03:44:57;7.53;;;5.87;;
2872;SDS011;1444;49.166;7.312;2023-05-19T03:47:24;6.27;;;5.67;;
2872;SDS011;1444;49.166;7.312;2023-05-19T03:49:51;6.37;;;5.80;;
2872;SDS011;1444;49.166;7.312;2023-05-19T03:52:18;10.40;;;7.07;;
2872;SDS011;1444;49.166;7.312;2023-05-19T03:54:44;6.60;;;5.47;;
2872;SDS011;1444;49.166;7.312;2023-05-19T03:57:12;12.17;;;6.50;;
2872;SDS011;1444;49.166;7.312;2023-05-19T03:59:39;8.80;;;6.20;;
2872;SDS011;1444;49.166;7.312;2023-05-19T04:02:09;6.43;;;5.80;;
2872;SDS011;1444;49.166;7.312;2023-05-19T04:04:36;7.30;;;6.27;;
2872;SDS011;1444;49.166;7.312;2023-05-19T04:07:02;7.53;;;6.83;;
2872;SDS011;1444;49.166;7.312;2023-05-19T04:09:29;12.93;;;6.97;;
2872;SDS011;1444;49.166;7.312;2023-05-19T04:11:59;10.67;;;7.63;;
2872;SDS011;1444;49.166;7.312;2023-05-19T04:14:26;9.50;;;6.03;;
2872;SDS011;1444;49.166;7.312;2023-05-19T04:16:53;7.03;;;6.43;;
2872;SDS011;1444;49.166;7.312;2023-05-19T04:19:21;7.30;;;6.60;;
2872;SDS011;1444;49.166;7.312;2023-05-19T04:21:49;10.17;;;6.67;;
2872;SDS011;1444;49.166;7.312;2023-05-19T04:24:16;8.10;;;6.83;;
2872;SDS011;1444;49.166;7.312;2023-05-19T04:26:43;11.97;;;6.23;;
2872;SDS011;1444;49.166;7.312;2023-05-19T04:29:11;7.50;;;6.63;;
2872;SDS011;1444;49.166;7.312;2023-05-19T04:31:42;6.80;;;6.20;;
2872;SDS011;1444;49.166;7.312;2023-05-19T04:34:08;12.70;;;7.47;;
2872;SDS011;1444;49.166;7.312;2023-05-19T04:36:37;11.43;;;6.90;;
2872;SDS011;1444;49.166;7.312;2023-05-19T04:39:04;12.10;;;7.97;;
2872;SDS011;1444;49.166;7.312;2023-05-19T04:41:34;13.73;;;7.90;;
2872;SDS011;1444;49.166;7.312;2023-05-19T04:44:04;10.37;;;7.20;;
2872;SDS011;1444;49.166;7.312;2023-05-19T04:46:31;10.90;;;7.80;;
2872;SDS011;1444;49.166;7.312;2023-05-19T04:48:58;10.63;;;8.90;;
2872;SDS011;1444;49.166;7.312;2023-05-19T04:51:26;13.87;;;8.03;;
2872;SDS011;1444;49.166;7.312;2023-05-19T04:53:56;11.93;;;7.57;;
2872;SDS011;1444;49.166;7.312;2023-05-19T04:56:23;11.80;;;7.70;;
2872;SDS011;1444;49.166;7.312;2023-05-19T04:58:51;10.33;;;7.53;;
2872;SDS011;1444;49.166;7.312;2023-05-19T05:01:18;11.03;;;7.37;;
2872;SDS011;1444;49.166;7.312;2023-05-19T05:03:50;12.33;;;7.97;;
2872;SDS011;1444;49.166;7.312;2023-05-19T05:06:19;7.60;;;6.30;;
2872;SDS011;1444;49.166;7.312;2023-05-19T05:08:46;12.33;;;6.40;;
2872;SDS011;1444;49.166;7.312;2023-05-19T05:11:14;8.80;;;7.37;;
2872;SDS011;1444;49.166;7.312;2023-05-19T05:13:42;8.30;;;6.20;;
2872;SDS011;1444;49.166;7.312;2023-05-19T05:16:09;8.93;;;6.70;;
2872;SDS011;1444;49.166;7.312;2023-05-19T05:18:37;13.80;;;7.50;;
2872;SDS011;1444;49.166;7.312;2023-05-19T05:21:05;17.87;;;8.67;;
2872;SDS011;1444;49.166;7.312;2023-05-19T05:23:33;9.10;;;7.20;;
2872;SDS011;1444;49.166;7.312;2023-05-19T05:26:01;10.90;;;7.53;;
2872;SDS011;1444;49.166;7.312;2023-05-19T05:28:36;12.70;;;7.77;;
2872;SDS011;1444;49.166;7.312;2023-05-19T05:31:03;10.50;;;6.67;;
2872;SDS011;1444;49.166;7.312;2023-05-19T05:33:29;9.30;;;6.50;;
2872;SDS011;1444;49.166;7.312;2023-05-19T05:35:57;9.00;;;5.80;;
2872;SDS011;1444;49.166;7.312;2023-05-19T05:38:24;9.50;;;6.00;;
2872;SDS011;1444;49.166;7.312;2023-05-19T05:40:51;8.57;;;6.20;;
2872;SDS011;1444;49.166;7.312;2023-05-19T05:43:17;9.43;;;5.50;;
2872;SDS011;1444;49.166;7.312;2023-05-19T05:45:46;6.30;;;5.70;;
2872;SDS011;1444;49.166;7.312;2023-05-19T05:48:13;7.53;;;5.53;;
2872;SDS011;1444;49.166;7.312;2023-05-19T05:50:40;8.33;;;5.40;;
2872;SDS011;1444;49.166;7.312;2023-05-19T05:53:08;7.90;;;5.30;;
2872;SDS011;1444;49.166;7.312;2023-05-19T05:55:41;6.87;;;5.80;;
2872;SDS011;1444;49.166;7.312;2023-05-19T05:58:08;6.97;;;5.50;;
2872;SDS011;1444;49.166;7.312;2023-05-19T06:00:35;6.00;;;5.33;;
2872;SDS011;1444;49.166;7.312;2023-05-19T06:03:04;9.53;;;5.70;;
2872;SDS011;1444;49.166;7.312;2023-05-19T06:05:30;8.63;;;5.00;;
2872;SDS011;1444;49.166;7.312;2023-05-19T06:07:57;10.33;;;6.60;;
2872;SDS011;1444;49.166;7.312;2023-05-19T06:10:24;8.83;;;4.63;;
2872;SDS011;1444;49.166;7.312;2023-05-19T06:12:51;10.53;;;4.97;;
2872;SDS011;1444;49.166;7.312;2023-05-19T06:15:18;9.90;;;4.40;;
2872;SDS011;1444;49.166;7.312;2023-05-19T06:17:45;4.87;;;4.40;;
2872;SDS011;1444;49.166;7.312;2023-05-19T06:20:13;6.20;;;4.20;;
2872;SDS011;1444;49.166;7.312;2023-05-19T06:22:40;10.63;;;4.10;;
2872;SDS011;1444;49.166;7.312;2023-05-19T06:25:07;7.60;;;4.40;;
2872;SDS011;1444;49.166;7.312;2023-05-19T06:27:34;3.97;;;3.50;;
2872;SDS011;1444;49.166;7.312;2023-05-19T06:30:01;4.90;;;4.37;;
2872;SDS011;1444;49.166;7.312;2023-05-19T06:32:28;5.90;;;4.50;;
2872;SDS011;1444;49.166;7.312;2023-05-19T06:34:55;5.83;;;4.40;;
2872;SDS011;1444;49.166;7.312;2023-05-19T06:37:23;6.37;;;3.70;;
2872;SDS011;1444;49.166;7.312;2023-05-19T06:39:50;7.57;;;4.27;;
2872;SDS011;1444;49.166;7.312;2023-05-19T06:42:18;6.93;;;3.40;;
2872;SDS011;1444;49.166;7.312;2023-05-19T06:44:46;6.53;;;3.57;;
2872;SDS011;1444;49.166;7.312;2023-05-19T06:47:14;5.33;;;4.03;;
2872;SDS011;1444;49.166;7.312;2023-05-19T06:49:40;7.60;;;4.07;;
2872;SDS011;1444;49.166;7.312;2023-05-19T06:52:07;6.40;;;3.40;;
2872;SDS011;1444;49.166;7.312;2023-05-19T06:54:36;8.00;;;3.57;;
2872;SDS011;1444;49.166;7.312;2023-05-19T06:57:02;12.43;;;4.20;;
2872;SDS011;1444;49.166;7.312;2023-05-19T06:59:30;11.93;;;3.50;;
2872;SDS011;1444;49.166;7.312;2023-05-19T07:01:56;7.00;;;3.60;;
2872;SDS011;1444;49.166;7.312;2023-05-19T07:04:23;12.53;;;3.80;;
2872;SDS011;1444;49.166;7.312;2023-05-19T07:06:51;8.63;;;3.53;;
2872;SDS011;1444;49.166;7.312;2023-05-19T07:09:19;5.13;;;2.97;;
2872;SDS011;1444;49.166;7.312;2023-05-19T07:11:47;12.60;;;3.40;;
2872;SDS011;1444;49.166;7.312;2023-05-19T07:14:14;10.57;;;4.00;;
2872;SDS011;1444;49.166;7.312;2023-05-19T07:16:40;7.20;;;3.13;;
2872;SDS011;1444;49.166;7.312;2023-05-19T07:19:07;9.80;;;3.27;;
2872;SDS011;1444;49.166;7.312;2023-05-19T07:21:34;4.37;;;3.13;;
2872;SDS011;1444;49.166;7.312;2023-05-19T07:24:01;6.40;;;3.60;;
2872;SDS011;1444;49.166;7.312;2023-05-19T07:26:28;6.63;;;3.77;;
2872;SDS011;1444;49.166;7.312;2023-05-19T07:28:56;5.13;;;2.60;;
2872;SDS011;1444;49.166;7.312;2023-05-19T07:31:23;6.30;;;3.80;;
2872;SDS011;1444;49.166;7.312;2023-05-19T07:33:49;16.33;;;3.40;;
2872;SDS011;1444;49.166;7.312;2023-05-19T07:36:16;6.47;;;3.30;;
2872;SDS011;1444;49.166;7.312;2023-05-19T07:38:44;5.77;;;4.00;;
2872;SDS011;1444;49.166;7.312;2023-05-19T07:41:11;6.03;;;3.53;;
2872;SDS011;1444;49.166;7.312;2023-05-19T07:43:38;5.20;;;3.43;;
2872;SDS011;1444;49.166;7.312;2023-05-19T07:46:07;8.33;;;3.33;;
2872;SDS011;1444;49.166;7.312;2023-05-19T07:48:33;8.53;;;3.80;;
2872;SDS011;1444;49.166;7.312;2023-05-19T07:51:01;9.87;;;3.17;;
2872;SDS011;1444;49.166;7.312;2023-05-19T07:53:27;7.03;;;3.43;;
2872;SDS011;1444;49.166;7.312;2023-05-19T07:55:54;6.30;;;3.20;;
2872;SDS011;1444;49.166;7.312;2023-05-19T07:58:21;10.27;;;3.83;;
2872;SDS011;1444;49.166;7.312;2023-05-19T08:00:48;5.93;;;3.33;;
2872;SDS011;1444;49.166;7.312;2023-05-19T08:03:16;6.53;;;3.23;;
2872;SDS011;1444;49.166;7.312;2023-05-19T08:05:43;8.87;;;3.30;;
2872;SDS011;1444;49.166;7.312;2023-05-19T08:08:10;6.30;;;3.30;;
2872;SDS011;1444;49.166;7.312;2023-05-19T08:10:36;11.17;;;3.30;;
2872;SDS011;1444;49.166;7.312;2023-05-19T08:13:03;7.90;;;3.50;;
2872;SDS011;1444;49.166;7.312;2023-05-19T08:15:30;9.20;;;3.40;;
2872;SDS011;1444;49.166;7.312;2023-05-19T08:17:57;6.80;;;3.10;;
2872;SDS011;1444;49.166;7.312;2023-05-19T08:20:25;7.60;;;3.70;;
2872;SDS011;1444;49.166;7.312;2023-05-19T08:22:52;7.37;;;3.17;;
2872;SDS011;1444;49.166;7.312;2023-05-19T08:25:19;6.53;;;3.37;;
2872;SDS011;1444;49.166;7.312;2023-05-19T08:27:46;7.77;;;3.30;;
2872;SDS011;1444;49.166;7.312;2023-05-19T08:30:13;10.53;;;3.93;;
2872;SDS011;1444;49.166;7.312;2023-05-19T08:32:46;7.30;;;3.30;;
2872;SDS011;1444;49.166;7.312;2023-05-19T08:35:13;5.10;;;3.40;;
2872;SDS011;1444;49.166;7.312;2023-05-19T08:37:41;10.07;;;3.57;;
2872;SDS011;1444;49.166;7.312;2023-05-19T08:40:09;8.73;;;4.00;;
2872;SDS011;1444;49.166;7.312;2023-05-19T08:42:40;8.90;;;3.97;;
2872;SDS011;1444;49.166;7.312;2023-05-19T08:45:08;10.93;;;3.67;;
2872;SDS011;1444;49.166;7.312;2023-05-19T08:47:35;4.63;;;2.70;;
2872;SDS011;1444;49.166;7.312;2023-05-19T08:50:03;6.77;;;3.27;;
2872;SDS011;1444;49.166;7.312;2023-05-19T08:52:32;4.23;;;2.80;;
2872;SDS011;1444;49.166;7.312;2023-05-19T08:55:08;6.70;;;3.60;;
2872;SDS011;1444;49.166;7.312;2023-05-19T08:57:49;10.83;;;3.73;;
2872;SDS011;1444;49.166;7.312;2023-05-19T09:00:17;3.33;;;3.03;;
2872;SDS011;1444;49.166;7.312;2023-05-19T09:02:46;6.43;;;3.60;;
2872;SDS011;1444;49.166;7.312;2023-05-19T09:05:14;9.83;;;4.30;;
2872;SDS011;1444;49.166;7.312;2023-05-19T09:07:42;10.90;;;4.53;;
2872;SDS011;1444;49.166;7.312;2023-05-19T09:10:11;6.13;;;3.50;;
2872;SDS011;1444;49.166;7.312;2023-05-19T09:12:38;10.43;;;3.87;;
2872;SDS011;1444;49.166;7.312;2023-05-19T09:15:06;9.73;;;3.97;;
2872;SDS011;1444;49.166;7.312;2023-05-19T09:17:35;4.67;;;3.80;;
2872;SDS011;1444;49.166;7.312;2023-05-19T09:20:04;9.43;;;4.70;;
2872;SDS011;1444;49.166;7.312;2023-05-19T09:22:39;10.37;;;3.33;;
2872;SDS011;1444;49.166;7.312;2023-05-19T09:25:17;7.57;;;3.80;;
2872;SDS011;1444;49.166;7.312;2023-05-19T09:27:46;4.53;;;3.10;;
2872;SDS011;1444;49.166;7.312;2023-05-19T09:30:17;6.50;;;3.97;;
2872;SDS011;1444;49.166;7.312;2023-05-19T09:32:44;5.80;;;3.70;;
2872;SDS011;1444;49.166;7.312;2023-05-19T09:35:11;5.53;;;4.00;;
2872;SDS011;1444;49.166;7.312;2023-05-19T09:37:41;11.83;;;3.83;;
2872;SDS011;1444;49.166;7.312;2023-05-19T09:40:08;5.10;;;3.40;;
2872;SDS011;1444;49.166;7.312;2023-05-19T09:42:37;7.20;;;3.23;;
2872;SDS011;1444;49.166;7.312;2023-05-19T09:45:06;11.37;;;3.50;;
2872;SDS011;1444;49.166;7.312;2023-05-19T09:47:34;6.13;;;3.93;;
2872;SDS011;1444;49.166;7.312;2023-05-19T09:50:03;9.90;;;4.50;;
2872;SDS011;1444;49.166;7.312;2023-05-19T09:52:35;12.13;;;4.77;;
2872;SDS011;1444;49.166;7.312;2023-05-19T09:55:03;5.50;;;3.60;;
2872;SDS011;1444;49.166;7.312;2023-05-19T09:57:34;12.77;;;4.03;;
2872;SDS011;1444;49.166;7.312;2023-05-19T10:00:06;8.57;;;4.40;;
2872;SDS011;1444;49.166;7.312;2023-05-19T10:02:39;8.93;;;3.77;;
2872;SDS011;1444;49.166;7.312;2023-05-19T10:05:09;7.50;;;3.93;;
2872;SDS011;1444;49.166;7.312;2023-05-19T10:07:38;7.27;;;3.97;;
2872;SDS011;1444;49.166;7.312;2023-05-19T10:10:08;9.20;;;3.80;;
2872;SDS011;1444;49.166;7.312;2023-05-19T10:12:37;9.13;;;3.40;;
2872;SDS011;1444;49.166;7.312;2023-05-19T10:15:07;9.20;;;3.97;;
2872;SDS011;1444;49.166;7.312;2023-05-19T10:17:36;7.40;;;4.10;;
2872;SDS011;1444;49.166;7.312;2023-05-19T10:20:05;7.00;;;4.20;;
2872;SDS011;1444;49.166;7.312;2023-05-19T10:22:35;9.10;;;4.67;;
2872;SDS011;1444;49.166;7.312;2023-05-19T10:25:02;12.73;;;5.47;;
2872;SDS011;1444;49.166;7.312;2023-05-19T10:27:33;6.57;;;4.40;;
2872;SDS011;1444;49.166;7.312;2023-05-19T10:30:03;7.00;;;3.80;;
2872;SDS011;1444;49.166;7.312;2023-05-19T10:32:34;7.37;;;3.50;;
2872;SDS011;1444;49.166;7.312;2023-05-19T10:37:58;8.00;;;3.80;;
2872;SDS011;1444;49.166;7.312;2023-05-19T10:40:35;7.23;;;3.77;;
2872;SDS011;1444;49.166;7.312;2023-05-19T10:43:23;8.00;;;3.90;;
2872;SDS011;1444;49.166;7.312;2023-05-19T10:45:57;9.00;;;3.90;;
2872;SDS011;1444;49.166;7.312;2023-05-19T10:48:25;7.83;;;3.73;;
2872;SDS011;1444;49.166;7.312;2023-05-19T10:50:57;11.03;;;4.17;;
2872;SDS011;1444;49.166;7.312;2023-05-19T10:53:29;6.00;;;3.80;;
2872;SDS011;1444;49.166;7.312;2023-05-19T10:55:56;6.17;;;3.60;;
2872;SDS011;1444;49.166;7.312;2023-05-19T10:58:37;9.67;;;4.70;;
2872;SDS011;1444;49.166;7.312;2023-05-19T11:01:20;8.73;;;3.97;;
2872;SDS011;1444;49.166;7.312;2023-05-19T11:03:50;5.30;;;3.10;;
2872;SDS011;1444;49.166;7.312;2023-05-19T11:06:18;6.63;;;3.50;;
2872;SDS011;1444;49.166;7.312;2023-05-19T11:08:46;6.87;;;3.80;;
2872;SDS011;1444;49.166;7.312;2023-05-19T11:11:17;7.90;;;4.00;;
2872;SDS011;1444;49.166;7.312;2023-05-19T11:13:45;11.70;;;5.73;;
2872;SDS011;1444;49.166;7.312;2023-05-19T11:16:13;6.13;;;3.47;;
2872;SDS011;1444;49.166;7.312;2023-05-19T11:18:47;7.63;;;3.13;;
2872;SDS011;1444;49.166;7.312;2023-05-19T11:21:14;7.47;;;3.33;;
2872;SDS011;1444;49.166;7.312;2023-05-19T11:23:41;8.43;;;3.90;;
2872;SDS011;1444;49.166;7.312;2023-05-19T11:26:08;8.00;;;3.50;;
2872;SDS011;1444;49.166;7.312;2023-05-19T11:28:35;4.40;;;3.30;;
2872;SDS011;1444;49.166;7.312;2023-05-19T11:31:03;9.00;;;3.50;;
2872;SDS011;1444;49.166;7.312;2023-05-19T11:33:34;5.70;;;3.30;;
2872;SDS011;1444;49.166;7.312;2023-05-19T11:36:03;4.80;;;3.40;;
2872;SDS011;1444;49.166;7.312;2023-05-19T11:38:31;8.47;;;4.13;;
2872;SDS011;1444;49.166;7.312;2023-05-19T11:40:59;6.37;;;3.30;;
2872;SDS011;1444;49.166;7.312;2023-05-19T11:43:26;4.47;;;3.33;;
2872;SDS011;1444;49.166;7.312;2023-05-19T11:45:53;4.63;;;3.10;;
2872;SDS011;1444;49.166;7.312;2023-05-19T11:48:20;8.27;;;3.40;;
2872;SDS011;1444;49.166;7.312;2023-05-19T11:50:47;9.97;;;3.33;;
2872;SDS011;1444;49.166;7.312;2023-05-19T11:53:16;7.30;;;3.40;;
2872;SDS011;1444;49.166;7.312;2023-05-19T11:55:44;6.83;;;3.53;;
2872;SDS011;1444;49.166;7.312;2023-05-19T11:58:11;8.90;;;2.90;;
2872;SDS011;1444;49.166;7.312;2023-05-19T12:00:38;6.50;;;3.00;;
2872;SDS011;1444;49.166;7.312;2023-05-19T12:03:06;5.50;;;2.97;;
2872;SDS011;1444;49.166;7.312;2023-05-19T12:05:35;5.27;;;3.23;;
2872;SDS011;1444;49.166;7.312;2023-05-19T12:08:03;4.53;;;2.67;;
2872;SDS011;1444;49.166;7.312;2023-05-19T12:10:32;3.37;;;2.40;;
2872;SDS011;1444;49.166;7.312;2023-05-19T12:12:59;6.40;;;2.80;;
2872;SDS011;1444;49.166;7.312;2023-05-19T12:15:27;6.23;;;3.30;;
2872;SDS011;1444;49.166;7.312;2023-05-19T12:17:56;5.67;;;3.10;;
2872;SDS011;1444;49.166;7.312;2023-05-19T12:20:24;5.60;;;2.77;;
2872;SDS011;1444;49.166;7.312;2023-05-19T12:22:51;8.40;;;3.53;;
2872;SDS011;1444;49.166;7.312;2023-05-19T12:25:20;5.17;;;2.80;;
2872;SDS011;1444;49.166;7.312;2023-05-19T12:27:48;5.20;;;2.40;;
2872;SDS011;1444;49.166;7.312;2023-05-19T12:30:16;9.27;;;4.00;;
2872;SDS011;1444;49.166;7.312;2023-05-19T12:32:44;5.23;;;2.90;;
2872;SDS011;1444;49.166;7.312;2023-05-19T12:35:13;7.47;;;2.93;;
2872;SDS011;1444;49.166;7.312;2023-05-19T12:37:41;6.23;;;3.27;;
2872;SDS011;1444;49.166;7.312;2023-05-19T12:40:08;6.20;;;2.80;;
2872;SDS011;1444;49.166;7.312;2023-05-19T12:42:42;4.30;;;2.63;;
2872;SDS011;1444;49.166;7.312;2023-05-19T12:45:11;5.73;;;2.30;;
2872;SDS011;1444;49.166;7.312;2023-05-19T12:47:39;11.33;;;3.20;;
2872;SDS011;1444;49.166;7.312;2023-05-19T12:50:06;5.43;;;2.50;;
2872;SDS011;1444;49.166;7.312;2023-05-19T12:52:42;8.00;;;2.47;;
2872;SDS011;1444;49.166;7.312;2023-05-19T12:55:10;6.10;;;2.90;;
2872;SDS011;1444;49.166;7.312;2023-05-19T12:57:39;5.10;;;3.07;;
2872;SDS011;1444;49.166;7.312;2023-05-19T13:00:12;5.80;;;3.27;;
2872;SDS011;1444;49.166;7.312;2023-05-19T13:02:53;6.50;;;2.90;;
2872;SDS011;1444;49.166;7.312;2023-05-19T13:05:21;7.50;;;3.87;;
2872;SDS011;1444;49.166;7.312;2023-05-19T13:07:52;7.67;;;4.37;;
2872;SDS011;1444;49.166;7.312;2023-05-19T13:10:20;6.87;;;4.07;;
2872;SDS011;1444;49.166;7.312;2023-05-19T13:12:48;5.43;;;2.83;;
2872;SDS011;1444;49.166;7.312;2023-05-19T13:15:16;4.53;;;2.53;;
2872;SDS011;1444;49.166;7.312;2023-05-19T13:17:43;4.10;;;3.00;;
2872;SDS011;1444;49.166;7.312;2023-05-19T13:20:10;4.00;;;2.67;;
2872;SDS011;1444;49.166;7.312;2023-05-19T13:22:37;7.97;;;2.93;;
2872;SDS011;1444;49.166;7.312;2023-05-19T13:25:05;3.73;;;2.33;;
2872;SDS011;1444;49.166;7.312;2023-05-19T13:27:32;6.10;;;2.80;;
2872;SDS011;1444;49.166;7.312;2023-05-19T13:29:59;4.80;;;2.90;;
2872;SDS011;1444;49.166;7.312;2023-05-19T13:32:27;4.53;;;2.50;;
2872;SDS011;1444;49.166;7.312;2023-05-19T13:34:54;5.53;;;3.33;;
2872;SDS011;1444;49.166;7.312;2023-05-19T13:37:21;4.83;;;3.07;;
2872;SDS011;1444;49.166;7.312;2023-05-19T13:39:48;3.30;;;2.53;;
2872;SDS011;1444;49.166;7.312;2023-05-19T13:42:15;9.83;;;3.63;;
2872;SDS011;1444;49.166;7.312;2023-05-19T13:44:41;5.97;;;2.90;;
2872;SDS011;1444;49.166;7.312;2023-05-19T13:47:10;6.33;;;3.20;;
2872;SDS011;1444;49.166;7.312;2023-05-19T13:49:38;6.10;;;2.97;;
2872;SDS011;1444;49.166;7.312;2023-05-19T13:52:06;3.53;;;3.07;;
2872;SDS011;1444;49.166;7.312;2023-05-19T13:54:33;6.73;;;3.03;;
2872;SDS011;1444;49.166;7.312;2023-05-19T13:57:00;3.90;;;2.87;;
2872;SDS011;1444;49.166;7.312;2023-05-19T13:59:26;6.40;;;3.40;;
2872;SDS011;1444;49.166;7.312;2023-05-19T14:01:53;3.30;;;2.50;;
2872;SDS011;1444;49.166;7.312;2023-05-19T14:04:20;4.83;;;3.27;;
2872;SDS011;1444;49.166;7.312;2023-05-19T14:06:49;5.47;;;2.87;;
2872;SDS011;1444;49.166;7.312;2023-05-19T14:09:16;4.10;;;2.90;;
2872;SDS011;1444;49.166;7.312;2023-05-19T14:11:43;52.03;;;5.43;;
2872;SDS011;1444;49.166;7.312;2023-05-19T14:14:10;5.03;;;2.60;;
2872;SDS011;1444;49.166;7.312;2023-05-19T14:16:38;6.70;;;2.83;;
2872;SDS011;1444;49.166;7.312;2023-05-19T14:19:05;3.40;;;3.10;;
2872;SDS011;1444;49.166;7.312;2023-05-19T14:21:32;3.40;;;3.10;;
2872;SDS011;1444;49.166;7.312;2023-05-19T14:24:01;6.30;;;3.00;;
2872;SDS011;1444;49.166;7.312;2023-05-19T14:26:28;7.93;;;3.00;;
2872;SDS011;1444;49.166;7.312;2023-05-19T14:28:55;7.60;;;3.20;;
2872;SDS011;1444;49.166;7.312;2023-05-19T14:31:22;4.93;;;3.10;;
2872;SDS011;1444;49.166;7.312;2023-05-19T14:33:49;3.90;;;3.20;;
2872;SDS011;1444;49.166;7.312;2023-05-19T14:36:17;5.87;;;2.80;;
2872;SDS011;1444;49.166;7.312;2023-05-19T14:38:44;5.60;;;3.37;;
2872;SDS011;1444;49.166;7.312;2023-05-19T14:41:13;8.97;;;3.83;;
2872;SDS011;1444;49.166;7.312;2023-05-19T14:43:39;7.73;;;3.10;;
2872;SDS011;1444;49.166;7.312;2023-05-19T14:46:07;5.00;;;3.50;;
2872;SDS011;1444;49.166;7.312;2023-05-19T14:48:34;7.30;;;2.87;;
2872;SDS011;1444;49.166;7.312;2023-05-19T14:51:00;4.53;;;3.00;;
2872;SDS011;1444;49.166;7.312;2023-05-19T14:53:27;7.63;;;3.37;;
2872;SDS011;1444;49.166;7.312;2023-05-19T14:55:54;4.70;;;2.93;;
2872;SDS011;1444;49.166;7.312;2023-05-19T14:58:22;3.57;;;2.80;;
2872;SDS011;1444;49.166;7.312;2023-05-19T15:00:49;4.63;;;2.97;;
2872;SDS011;1444;49.166;7.312;2023-05-19T15:03:16;6.13;;;3.07;;
2872;SDS011;1444;49.166;7.312;2023-05-19T15:05:43;4.13;;;3.50;;
2872;SDS011;1444;49.166;7.312;2023-05-19T15:08:10;9.03;;;3.00;;
2872;SDS011;1444;49.166;7.312;2023-05-19T15:10:37;7.83;;;3.63;;
2872;SDS011;1444;49.166;7.312;2023-05-19T15:13:04;4.87;;;3.10;;
2872;SDS011;1444;49.166;7.312;2023-05-19T15:15:32;4.43;;;3.20;;
2872;SDS011;1444;49.166;7.312;2023-05-19T15:17:59;7.07;;;2.90;;
2872;SDS011;1444;49.166;7.312;2023-05-19T15:20:26;4.80;;;2.57;;
2872;SDS011;1444;49.166;7.312;2023-05-19T15:22:52;6.10;;;4.57;;
2872;SDS011;1444;49.166;7.312;2023-05-19T15:25:19;4.90;;;2.93;;
2872;SDS011;1444;49.166;7.312;2023-05-19T15:27:46;3.97;;;3.20;;